首页
METAR-TAF:

METAR-TAF

机场 :

Pierre Regional Airport

皮尔, 南达科他州, 美国

纬度: 44-22-58N, 经度: 100-17-09W, 海拔: 531米

当前天气观测

该预报发布于12分钟前的20:53 UTC
风速15节,风向西北
温度 10°C
湿度 57%
气压 1015 hPa
能見度: 16.1公里
阴天层高于9000英尺

METAR: KPIR 172053Z AUTO 31015KT 10SM OVC090 10/02 A2996 RMK AO2 SLP150 T01000017 51009

时间: 16:05 (21:05 UTC)

预报

该预报发布于3小时和45分钟前的17:20 UTC
预报有效从17日的 18点(UTC)到 18日的 18点(UTC)
风速14节,风向西转西北,有时为24节阵风
能見度: 10公里
多云层高于3000英尺
从 18日的 0200点(UTC)
风速10节,风向西转西北,有时为16节阵风
能見度: 10公里
多云层高于9000英尺
从 18日的 1100点(UTC)
风速14节,风向西转西北,有时为21节阵风
能見度: 10公里
少量云层高于23000英尺
从 18日的 1500点(UTC)
风速21节,风向西转西北,有时为30节阵风
能見度: 10公里
少量云层高于16000英尺

TAF: KPIR 171720Z 1718/1818 30014G24KT P6SM BKN030 FM180200 29010G16KT P6SM BKN090 FM181100 29014G21KT P6SM FEW230 FM181500 30021G30KT P6SM FEW160

超过4000个机场的气象观测和天气预报(METAR&TAF报告)。

可查询的气象台以黄色和红色小点在地图上表示。

将鼠标移到小点上方,可查看气象台名称。

然后点击查看天气观测和预报。

如需切换地图:点击带黑十字的绿色按钮放大地图;点击带横线的绿色按钮缩小地图;或者点击绿色箭头查看邻近地区的地图。


METAR-TAF: